Time;durP1;ratioP1;P1;durP2;ratioP2;P2;SDS_P1;SDS_P2;PMS_P1;PMS_P2;Temp;Humidity;BMP_temperature;BMP_pressure;BME280_temperature;BME280_humidity;BME280_pressure;Samples;Min_cycle;Max_cycle;Signal;HPM_P1;HPM_P2
2022/06/09 00:00:21;;;;;;;1.50;1.10;;;15.20;98.00;;;;;;5033569;28;20488;-70
2022/06/09 00:02:53;;;;;;;1.20;1.10;;;15.20;98.00;;;;;;5033624;28;20821;-70
2022/06/09 00:05:21;;;;;;;1.73;1.10;;;15.30;98.00;;;;;;5032519;28;20554;-70
2022/06/09 00:07:50;;;;;;;1.20;1.10;;;15.40;98.00;;;;;;5033400;28;20470;-70
2022/06/09 00:10:23;;;;;;;1.80;1.33;;;15.40;98.00;;;;;;5033598;28;20496;-71
2022/06/09 00:12:50;;;;;;;1.83;1.10;;;15.40;98.00;;;;;;5033382;28;20485;-70
2022/06/09 00:15:18;;;;;;;1.20;1.10;;;15.50;98.00;;;;;;5033743;28;20826;-70
2022/06/09 00:17:45;;;;;;;1.40;1.00;;;15.50;98.00;;;;;;5033274;28;20458;-71
2022/06/09 00:20:14;;;;;;;1.30;1.17;;;15.50;98.00;;;;;;5033149;28;20577;-70
2022/06/09 00:22:41;;;;;;;1.20;1.10;;;15.50;98.00;;;;;;5033115;28;20461;-71
2022/06/09 00:25:10;;;;;;;1.20;1.00;;;15.60;98.00;;;;;;5033272;28;20451;-71
2022/06/09 00:27:38;;;;;;;2.07;1.30;;;15.70;98.00;;;;;;5032872;28;20486;-70
2022/06/09 00:30:08;;;;;;;1.30;1.20;;;15.80;98.00;;;;;;5031974;28;20823;-71
2022/06/09 00:32:35;;;;;;;1.30;1.00;;;15.80;98.00;;;;;;5032446;28;20454;-70
2022/06/09 00:35:02;;;;;;;1.30;1.10;;;16.00;98.00;;;;;;5032131;28;20455;-71
2022/06/09 00:37:29;;;;;;;1.40;1.10;;;16.20;98.00;;;;;;5033225;28;20601;-70
2022/06/09 00:39:57;;;;;;;1.20;1.10;;;16.20;98.00;;;;;;5032918;28;20483;-71
2022/06/09 00:42:24;;;;;;;1.20;1.00;;;16.00;98.00;;;;;;5032983;28;20455;-71
2022/06/09 00:44:53;;;;;;;1.20;1.10;;;15.80;98.00;;;;;;5033181;28;20466;-70
2022/06/09 00:47:31;;;;;;;2.70;1.40;;;15.70;98.00;;;;;;5033164;28;20458;-71
2022/06/09 00:50:02;;;;;;;1.20;1.10;;;15.60;98.00;;;;;;5032652;28;20883;-70
2022/06/09 00:52:34;;;;;;;1.20;1.00;;;15.60;98.00;;;;;;5031379;28;20459;-71
2022/06/09 00:55:06;;;;;;;1.20;1.10;;;15.50;98.00;;;;;;5032627;28;20466;-71
2022/06/09 00:57:37;;;;;;;1.40;1.10;;;15.60;98.00;;;;;;5032574;28;20458;-71
2022/06/09 01:00:12;;;;;;;1.40;1.20;;;15.60;98.00;;;;;;5032483;28;20478;-71
2022/06/09 01:02:39;;;;;;;1.30;1.00;;;15.40;98.00;;;;;;5033266;28;20456;-70
2022/06/09 01:05:07;;;;;;;1.20;1.10;;;15.40;98.00;;;;;;5033603;28;20463;-70
2022/06/09 01:07:38;;;;;;;1.73;1.10;;;15.40;98.00;;;;;;5033392;28;20470;-71
2022/06/09 01:10:08;;;;;;;1.20;1.00;;;15.40;98.00;;;;;;5032343;28;20463;-70
2022/06/09 01:12:37;;;;;;;1.30;1.20;;;15.50;98.00;;;;;;5031868;28;20462;-71
2022/06/09 01:15:09;;;;;;;1.20;1.03;;;15.60;98.00;;;;;;5033431;28;20479;-70
2022/06/09 01:17:51;;;;;;;1.30;1.10;;;15.60;98.00;;;;;;5033100;28;20458;-70
2022/06/09 01:20:34;;;;;;;1.20;1.00;;;15.60;98.00;;;;;;5032395;28;20491;-71
2022/06/09 01:23:37;;;;;;;1.60;1.30;;;15.50;98.00;;;;;;5032659;28;20465;-71
2022/06/09 01:26:24;;;;;;;1.20;1.00;;;15.40;98.00;;;;;;5019423;28;21042;-70
2022/06/09 01:29:16;;;;;;;1.20;1.00;;;15.60;98.00;;;;;;5032095;28;20476;-70
2022/06/09 01:31:51;;;;;;;1.20;1.07;;;15.70;98.00;;;;;;5031970;28;20458;-71
2022/06/09 01:34:24;;;;;;;1.40;1.20;;;15.60;98.00;;;;;;5032179;28;20463;-71
2022/06/09 01:36:58;;;;;;;1.20;1.07;;;15.70;98.00;;;;;;5032194;28;20825;-70
2022/06/09 01:39:29;;;;;;;2.60;1.23;;;15.80;98.00;;;;;;5031066;28;20462;-70
2022/06/09 01:41:56;;;;;;;1.83;1.37;;;15.70;98.00;;;;;;5031985;28;20516;-71
2022/06/09 01:44:25;;;;;;;1.30;1.13;;;15.70;98.00;;;;;;5031023;28;20459;-70
2022/06/09 01:47:01;;;;;;;1.40;1.10;;;15.80;98.00;;;;;;5031284;28;20451;-70
2022/06/09 01:49:32;;;;;;;2.20;1.37;;;15.70;98.00;;;;;;5031773;28;20458;-70
2022/06/09 01:52:00;;;;;;;1.20;1.00;;;15.70;98.00;;;;;;5031657;28;20505;-70
2022/06/09 01:54:31;;;;;;;1.30;1.10;;;15.80;98.00;;;;;;5031680;28;20463;-70
2022/06/09 01:57:07;;;;;;;1.20;1.00;;;15.90;98.00;;;;;;5031510;28;20450;-71
2022/06/09 01:59:38;;;;;;;1.50;1.23;;;15.80;98.00;;;;;;5031641;28;20485;-71
2022/06/09 02:02:12;;;;;;;2.30;1.30;;;15.80;98.00;;;;;;5030254;28;20508;-70
2022/06/09 02:04:43;;;;;;;1.20;1.00;;;15.90;98.00;;;;;;5031492;28;20867;-71
2022/06/09 02:07:12;;;;;;;1.40;1.30;;;16.00;98.00;;;;;;5031381;28;20867;-70
2022/06/09 02:09:40;;;;;;;1.20;1.07;;;15.80;98.00;;;;;;5031038;28;20459;-71
2022/06/09 02:12:13;;;;;;;1.20;1.00;;;15.80;98.00;;;;;;5031222;28;20469;-71
2022/06/09 02:14:44;;;;;;;1.20;1.00;;;15.70;98.00;;;;;;5030309;28;20463;-71
2022/06/09 02:17:13;;;;;;;1.20;1.00;;;15.70;98.00;;;;;;5031279;28;20450;-71
2022/06/09 02:19:41;;;;;;;1.20;1.00;;;15.80;98.00;;;;;;5031397;28;20462;-71
2022/06/09 02:22:12;;;;;;;1.43;1.10;;;15.80;98.00;;;;;;5031046;28;20583;-71
2022/06/09 02:24:40;;;;;;;1.20;1.00;;;15.80;98.00;;;;;;5031214;28;20462;-71
2022/06/09 02:27:07;;;;;;;1.20;0.90;;;15.70;98.00;;;;;;5031341;28;20480;-71
2022/06/09 02:29:34;;;;;;;1.20;1.00;;;15.80;98.00;;;;;;5031132;28;20478;-71
2022/06/09 02:32:02;;;;;;;1.20;1.00;;;15.80;98.00;;;;;;5031105;28;20474;-71
2022/06/09 02:34:30;;;;;;;1.20;1.00;;;15.80;98.00;;;;;;5030111;28;20471;-71
2022/06/09 02:36:58;;;;;;;1.30;1.03;;;15.50;98.00;;;;;;5031532;28;20459;-70
2022/06/09 02:39:25;;;;;;;1.20;1.00;;;15.50;98.00;;;;;;5031336;28;20461;-70
2022/06/09 02:41:52;;;;;;;1.27;1.10;;;15.40;98.00;;;;;;5030884;28;20489;-71
2022/06/09 02:44:19;;;;;;;1.20;1.00;;;15.30;98.00;;;;;;5029931;28;20467;-71
2022/06/09 02:46:46;;;;;;;1.20;1.00;;;15.40;98.00;;;;;;5030885;28;20455;-71
2022/06/09 02:49:14;;;;;;;1.20;1.00;;;15.50;98.00;;;;;;5029712;28;20489;-70
2022/06/09 02:51:51;;;;;;;1.20;1.00;;;15.40;98.00;;;;;;5029637;28;20993;-71
2022/06/09 02:54:18;;;;;;;1.20;1.00;;;15.40;98.00;;;;;;5031041;28;20458;-70
2022/06/09 02:56:45;;;;;;;1.20;1.00;;;15.50;98.00;;;;;;5034682;28;20477;-70
2022/06/09 02:59:12;;;;;;;1.20;1.00;;;15.40;98.00;;;;;;5035048;28;20465;-71
2022/06/09 03:01:40;;;;;;;1.20;1.00;;;15.30;98.00;;;;;;5034576;28;20497;-71
2022/06/09 03:04:07;;;;;;;1.20;1.00;;;15.30;98.00;;;;;;5034794;28;20822;-71
2022/06/09 03:06:35;;;;;;;1.20;1.00;;;15.30;98.00;;;;;;5034637;28;20956;-71
2022/06/09 03:09:04;;;;;;;1.20;1.00;;;15.30;98.00;;;;;;5034558;28;20461;-71
2022/06/09 03:11:31;;;;;;;1.50;1.10;;;15.40;98.00;;;;;;5034519;28;20460;-71
2022/06/09 03:13:58;;;;;;;1.53;1.27;;;15.40;98.00;;;;;;5034664;28;20473;-71
2022/06/09 03:16:26;;;;;;;1.40;1.10;;;15.40;98.00;;;;;;5034381;28;20458;-70
2022/06/09 03:18:53;;;;;;;1.20;1.00;;;15.40;98.00;;;;;;5033063;28;20458;-71
2022/06/09 03:21:20;;;;;;;1.60;1.30;;;15.40;98.00;;;;;;5033254;28;20486;-71
2022/06/09 03:23:47;;;;;;;1.20;1.10;;;15.40;98.00;;;;;;5034414;28;20500;-71
2022/06/09 03:26:16;;;;;;;1.50;1.30;;;15.30;98.00;;;;;;5034355;28;20968;-71
2022/06/09 03:28:43;;;;;;;1.30;1.10;;;15.40;98.00;;;;;;5034275;28;20466;-71
2022/06/09 03:31:10;;;;;;;1.30;1.10;;;15.30;98.00;;;;;;5034395;28;20462;-70
2022/06/09 03:33:38;;;;;;;1.20;1.00;;;15.20;98.00;;;;;;5034341;28;20521;-70
2022/06/09 03:36:05;;;;;;;1.20;1.10;;;15.30;98.00;;;;;;5034296;28;20455;-71
2022/06/09 03:38:32;;;;;;;1.30;1.30;;;15.30;98.00;;;;;;5034385;28;20475;-70
2022/06/09 03:40:59;;;;;;;1.20;1.10;;;15.30;98.00;;;;;;5032835;28;20484;-70
2022/06/09 03:43:29;;;;;;;1.20;1.10;;;15.10;98.00;;;;;;5034071;28;20455;-70
2022/06/09 03:45:56;;;;;;;1.30;1.10;;;15.10;98.00;;;;;;5032584;28;20469;-71
2022/06/09 03:48:24;;;;;;;1.20;1.00;;;15.00;98.00;;;;;;5033971;28;20457;-71
2022/06/09 03:50:51;;;;;;;5.23;1.50;;;15.20;98.00;;;;;;5033126;28;20528;-70
2022/06/09 03:53:19;;;;;;;1.47;1.20;;;15.20;98.00;;;;;;5033221;28;20513;-71
2022/06/09 03:55:46;;;;;;;1.90;1.20;;;15.30;98.00;;;;;;5032698;28;20960;-70
2022/06/09 03:58:14;;;;;;;1.20;1.00;;;15.20;98.00;;;;;;5033713;28;20462;-70
2022/06/09 04:00:42;;;;;;;1.40;1.20;;;15.20;98.00;;;;;;5032502;28;20486;-71
2022/06/09 04:03:09;;;;;;;1.30;1.20;;;15.20;98.00;;;;;;5033552;28;20979;-70
2022/06/09 04:05:37;;;;;;;2.43;1.10;;;15.20;98.00;;;;;;5033749;28;20964;-70
2022/06/09 04:08:05;;;;;;;1.30;1.10;;;15.30;98.00;;;;;;5032473;28;20455;-71
2022/06/09 04:10:34;;;;;;;1.30;1.10;;;15.30;98.00;;;;;;5032276;28;20521;-71
2022/06/09 04:13:02;;;;;;;1.20;1.00;;;15.30;98.00;;;;;;5033354;28;20888;-70
2022/06/09 04:15:29;;;;;;;1.30;1.10;;;15.30;98.00;;;;;;5033409;28;20455;-70
2022/06/09 04:17:59;;;;;;;1.27;1.10;;;15.30;98.00;;;;;;5033327;28;20466;-71
2022/06/09 04:20:27;;;;;;;1.40;1.23;;;15.40;98.00;;;;;;5033259;28;20462;-70
2022/06/09 04:22:55;;;;;;;2.00;1.30;;;15.40;98.00;;;;;;5033205;28;20462;-70
2022/06/09 04:25:24;;;;;;;1.30;1.17;;;15.50;98.00;;;;;;5032195;28;20459;-70
2022/06/09 04:27:51;;;;;;;1.20;1.00;;;15.60;98.00;;;;;;5031722;28;20469;-70
2022/06/09 04:30:19;;;;;;;1.30;1.20;;;15.60;98.00;;;;;;5033228;28;20461;-70
2022/06/09 04:32:48;;;;;;;1.20;1.10;;;15.60;98.00;;;;;;5033324;28;20878;-70
2022/06/09 04:35:16;;;;;;;1.40;1.20;;;15.70;98.00;;;;;;5033370;28;20474;-71
2022/06/09 04:38:01;;;;;;;1.20;1.00;;;15.60;98.00;;;;;;5033007;28;20454;-70
2022/06/09 04:40:31;;;;;;;1.30;1.10;;;15.50;98.00;;;;;;5032150;28;20831;-70
2022/06/09 04:42:58;;;;;;;1.20;1.00;;;15.50;98.00;;;;;;5032755;28;20472;-70
2022/06/09 04:45:25;;;;;;;1.20;1.20;;;15.40;98.00;;;;;;5031808;28;20461;-71
2022/06/09 04:47:52;;;;;;;1.53;1.27;;;15.60;98.00;;;;;;5032736;28;20825;-70
2022/06/09 04:50:22;;;;;;;1.30;1.10;;;15.80;98.00;;;;;;5032826;28;21031;-70
2022/06/09 04:52:50;;;;;;;1.20;1.07;;;15.70;98.00;;;;;;5031892;28;20471;-71
2022/06/09 04:55:19;;;;;;;1.20;1.10;;;15.90;98.00;;;;;;5032716;28;20462;-70
2022/06/09 04:57:46;;;;;;;1.50;1.30;;;15.90;98.00;;;;;;5032530;28;20467;-71
2022/06/09 05:00:15;;;;;;;1.20;1.10;;;16.00;98.00;;;;;;5032624;28;20552;-71
2022/06/09 05:02:43;;;;;;;1.20;1.10;;;16.00;98.00;;;;;;5032366;28;20497;-71
2022/06/09 05:05:17;;;;;;;1.27;1.10;;;16.00;98.00;;;;;;5032456;28;20521;-70
2022/06/09 05:07:46;;;;;;;1.30;1.10;;;16.10;98.00;;;;;;5032511;28;20854;-70
2022/06/09 05:10:13;;;;;;;1.77;1.20;;;16.10;98.00;;;;;;5032343;28;20468;-70
2022/06/09 05:12:44;;;;;;;1.47;1.10;;;16.30;98.00;;;;;;5032292;28;20450;-70
2022/06/09 05:15:13;;;;;;;1.30;1.10;;;16.40;98.00;;;;;;5032488;28;20485;-70
2022/06/09 05:17:40;;;;;;;3.20;1.70;;;16.30;98.00;;;;;;5032017;28;20469;-70
2022/06/09 05:20:09;;;;;;;1.30;1.30;;;16.40;98.00;;;;;;5032115;28;20462;-71
2022/06/09 05:22:36;;;;;;;1.43;1.17;;;16.30;98.00;;;;;;5032107;28;20493;-70
2022/06/09 05:25:06;;;;;;;1.30;1.10;;;16.40;98.00;;;;;;5032204;28;20972;-71
2022/06/09 05:27:33;;;;;;;1.20;1.00;;;16.30;98.00;;;;;;5030676;28;20561;-70
2022/06/09 05:30:01;;;;;;;1.30;1.30;;;16.20;98.00;;;;;;5030791;28;20447;-71
2022/06/09 05:32:29;;;;;;;1.30;1.23;;;16.30;98.00;;;;;;5032244;28;20458;-71
2022/06/09 05:34:57;;;;;;;1.53;1.33;;;16.10;98.00;;;;;;5032239;28;20462;-70
2022/06/09 05:37:24;;;;;;;1.70;1.40;;;16.00;98.00;;;;;;5031845;28;20449;-70
2022/06/09 05:45:21;;;;;;;1.30;1.30;;;16.00;98.00;;;;;;5031856;28;20441;-70
2022/06/09 05:47:48;;;;;;;2.23;1.30;;;16.00;98.00;;;;;;5031702;28;20603;-71
2022/06/09 05:50:15;;;;;;;1.40;1.17;;;16.10;98.00;;;;;;5030385;28;20470;-70
2022/06/09 05:52:43;;;;;;;2.03;1.43;;;16.20;98.00;;;;;;5031379;28;20480;-70
2022/06/09 05:55:10;;;;;;;1.67;1.30;;;16.20;98.00;;;;;;5031151;28;20465;-71
2022/06/09 05:57:39;;;;;;;1.70;1.20;;;16.30;98.00;;;;;;5031575;28;20456;-70
2022/06/09 06:00:07;;;;;;;1.50;1.10;;;16.20;98.00;;;;;;5031593;28;20450;-70
2022/06/09 06:02:36;;;;;;;1.30;1.20;;;16.10;98.00;;;;;;5031521;28;20510;-71
2022/06/09 06:05:04;;;;;;;1.30;1.30;;;16.20;98.00;;;;;;5031435;28;20454;-73
2022/06/09 06:07:31;;;;;;;1.60;1.30;;;16.20;98.00;;;;;;5031153;28;20458;-72
2022/06/09 06:09:58;;;;;;;1.83;1.30;;;16.30;98.00;;;;;;5031436;28;20454;-72
2022/06/09 06:12:25;;;;;;;1.40;1.40;;;16.40;98.00;;;;;;5031143;28;20960;-72
2022/06/09 06:14:53;;;;;;;1.63;1.40;;;16.40;98.00;;;;;;5030093;28;20454;-73
2022/06/09 06:17:21;;;;;;;1.30;1.10;;;16.20;98.00;;;;;;5030649;28;20467;-73
2022/06/09 06:19:48;;;;;;;1.30;1.13;;;16.20;98.00;;;;;;5031316;28;20452;-72
2022/06/09 06:22:15;;;;;;;1.20;1.20;;;16.20;98.00;;;;;;5031286;28;20497;-74
2022/06/09 06:24:42;;;;;;;1.30;1.10;;;16.30;98.00;;;;;;5031388;28;20947;-72
2022/06/09 06:27:10;;;;;;;1.40;1.20;;;16.20;98.00;;;;;;5031257;28;20466;-72
2022/06/09 06:29:37;;;;;;;1.80;1.40;;;16.30;98.00;;;;;;5030655;28;20972;-72
2022/06/09 06:32:06;;;;;;;1.63;1.20;;;16.40;98.00;;;;;;5031369;28;20966;-73
2022/06/09 06:34:33;;;;;;;1.30;1.20;;;16.50;98.00;;;;;;5031359;28;20564;-73
2022/06/09 06:37:00;;;;;;;1.40;1.20;;;16.30;98.00;;;;;;5030128;28;20469;-72
2022/06/09 06:39:27;;;;;;;1.47;1.10;;;16.50;98.00;;;;;;5029972;28;20465;-72
2022/06/09 06:41:54;;;;;;;1.47;1.07;;;16.40;98.00;;;;;;5031133;28;20488;-73
2022/06/09 06:44:21;;;;;;;1.63;1.10;;;16.40;98.00;;;;;;5031118;28;20526;-72
2022/06/09 06:46:48;;;;;;;1.43;1.40;;;16.40;98.00;;;;;;5030910;28;20821;-72
2022/06/09 06:49:17;;;;;;;1.27;1.07;;;16.50;98.00;;;;;;5031071;28;20454;-72
2022/06/09 06:51:44;;;;;;;1.70;1.23;;;16.70;98.00;;;;;;5013300;28;20454;-72
2022/06/09 06:54:12;;;;;;;1.80;1.20;;;16.90;98.00;;;;;;5022114;28;20481;-71
2022/06/09 06:56:39;;;;;;;25.07;1.63;;;17.10;98.00;;;;;;5011096;28;20462;-72
2022/06/09 06:59:06;;;;;;;1.50;1.30;;;17.20;98.00;;;;;;5011275;28;20470;-72
2022/06/09 07:01:34;;;;;;;1.93;1.43;;;17.20;98.00;;;;;;5010907;28;20532;-71
2022/06/09 07:04:03;;;;;;;1.20;1.10;;;17.30;98.00;;;;;;5011069;28;20469;-71
2022/06/09 07:06:31;;;;;;;2.00;1.40;;;17.10;98.00;;;;;;5011162;28;20541;-73
2022/06/09 07:08:58;;;;;;;1.60;1.00;;;17.20;98.00;;;;;;5011020;28;20470;-73
2022/06/09 07:11:25;;;;;;;2.00;1.30;;;17.30;98.00;;;;;;5010955;28;20462;-72
2022/06/09 07:13:52;;;;;;;1.50;1.17;;;17.40;98.00;;;;;;5010828;28;20463;-72
2022/06/09 07:16:20;;;;;;;1.43;1.20;;;17.50;98.00;;;;;;5011148;28;20469;-72
2022/06/09 07:18:47;;;;;;;1.20;1.20;;;17.70;98.00;;;;;;5011069;28;20461;-73
2022/06/09 07:21:19;;;;;;;1.23;1.13;;;17.70;98.00;;;;;;5006823;28;20472;-72
2022/06/09 07:23:48;;;;;;;2.10;1.33;;;17.90;98.00;;;;;;5007028;28;20907;-73
2022/06/09 07:26:16;;;;;;;1.40;1.30;;;17.90;98.00;;;;;;5008547;28;20807;-73
2022/06/09 07:28:44;;;;;;;1.57;1.20;;;18.00;98.00;;;;;;5006409;28;20520;-72
2022/06/09 07:31:13;;;;;;;1.40;1.40;;;18.10;98.00;;;;;;5008465;28;20466;-73
2022/06/09 07:33:41;;;;;;;1.30;1.10;;;18.30;98.00;;;;;;5007261;28;21000;-72
2022/06/09 07:36:13;;;;;;;1.50;1.30;;;18.40;98.00;;;;;;5008722;28;20462;-73
2022/06/09 07:38:41;;;;;;;2.33;1.70;;;18.50;98.00;;;;;;5007970;28;20477;-72
2022/06/09 07:41:11;;;;;;;1.60;1.43;;;18.40;98.00;;;;;;5008127;28;20463;-72
2022/06/09 07:43:38;;;;;;;1.20;1.20;;;18.30;98.00;;;;;;5010885;28;20494;-72
2022/06/09 07:46:05;;;;;;;1.20;1.07;;;18.20;98.00;;;;;;5011601;28;20471;-72
2022/06/09 07:48:32;;;;;;;1.20;1.10;;;18.10;98.00;;;;;;5011830;28;20464;-72
2022/06/09 07:51:00;;;;;;;1.20;1.10;;;17.90;98.00;;;;;;5009713;28;20469;-72
2022/06/09 07:53:27;;;;;;;1.30;1.20;;;17.70;98.00;;;;;;5011425;28;20483;-74
2022/06/09 07:55:55;;;;;;;1.20;1.07;;;17.60;98.00;;;;;;5011421;28;20467;-72
2022/06/09 07:58:23;;;;;;;1.50;1.50;;;17.40;98.00;;;;;;5011352;28;20463;-73
2022/06/09 08:00:50;;;;;;;1.53;1.50;;;17.30;98.00;;;;;;5011458;28;20463;-71
2022/06/09 08:03:21;;;;;;;5.53;1.43;;;17.30;98.00;;;;;;5011205;28;20489;-72
2022/06/09 08:05:48;;;;;;;1.80;1.47;;;17.30;98.00;;;;;;5011232;28;20458;-70
2022/06/09 08:08:15;;;;;;;1.77;1.20;;;17.40;98.00;;;;;;5011515;28;20490;-72
2022/06/09 08:10:44;;;;;;;1.93;1.23;;;17.80;98.00;;;;;;5011352;28;20459;-71
2022/06/09 08:13:12;;;;;;;1.20;1.00;;;18.10;98.00;;;;;;5011162;28;20455;-71
2022/06/09 08:15:42;;;;;;;1.83;1.30;;;18.20;98.00;;;;;;5011165;28;20495;-70
2022/06/09 08:18:10;;;;;;;1.20;1.00;;;18.10;98.00;;;;;;5011006;28;20981;-69
2022/06/09 08:20:40;;;;;;;3.00;1.13;;;18.10;98.00;;;;;;5011582;28;20826;-72
2022/06/09 08:23:11;;;;;;;1.40;1.20;;;18.10;98.00;;;;;;5010478;28;20486;-69
2022/06/09 08:25:39;;;;;;;1.33;1.20;;;18.10;98.00;;;;;;5010821;28;20458;-68
2022/06/09 08:28:07;;;;;;;5.80;1.70;;;18.30;98.00;;;;;;5010776;28;20474;-70
2022/06/09 08:30:35;;;;;;;1.30;1.20;;;18.40;98.00;;;;;;5010903;28;20821;-68
2022/06/09 08:33:04;;;;;;;1.53;1.30;;;18.30;98.00;;;;;;5010984;28;20463;-68
2022/06/09 08:35:32;;;;;;;1.40;1.40;;;18.20;98.00;;;;;;5011216;28;20451;-69
2022/06/09 08:37:59;;;;;;;1.47;1.20;;;18.20;98.00;;;;;;5009467;28;20550;-69
2022/06/09 08:40:40;;;;;;;1.40;1.27;;;18.50;98.00;;;;;;5010955;28;20467;-72
2022/06/09 08:43:19;;;;;;;1.20;1.10;;;18.70;98.00;;;;;;5011020;28;20495;-72
2022/06/09 08:45:46;;;;;;;1.47;1.27;;;18.80;98.00;;;;;;5010532;28;20962;-70
2022/06/09 08:48:20;;;;;;;1.20;1.20;;;18.80;98.00;;;;;;5010969;28;20459;-70
2022/06/09 08:50:57;;;;;;;1.40;1.30;;;18.60;98.00;;;;;;5008787;28;20470;-72
2022/06/09 08:53:29;;;;;;;1.40;1.17;;;18.20;98.00;;;;;;5010534;28;20586;-69
2022/06/09 08:56:00;;;;;;;1.60;1.13;;;18.10;98.00;;;;;;5011092;28;20470;-68
2022/06/09 08:58:39;;;;;;;1.40;1.30;;;18.10;98.00;;;;;;5010991;28;20459;-71
2022/06/09 09:01:19;;;;;;;1.20;1.10;;;17.90;98.00;;;;;;5010706;28;20474;-68
2022/06/09 09:03:51;;;;;;;9.90;1.93;;;17.80;98.00;;;;;;5010694;28;20553;-70
2022/06/09 09:06:24;;;;;;;1.70;1.30;;;17.90;98.00;;;;;;5010754;28;20451;-69
2022/06/09 09:08:52;;;;;;;3.73;1.63;;;18.30;98.00;;;;;;5010885;28;20464;-71
2022/06/09 09:11:46;;;;;;;1.20;0.97;;;18.60;98.00;;;;;;5010865;28;20463;-70
2022/06/09 09:14:17;;;;;;;2.83;1.40;;;18.70;98.00;;;;;;5010659;28;20459;-69
2022/06/09 09:16:58;;;;;;;1.30;1.20;;;18.60;98.00;;;;;;5010540;28;20518;-70
2022/06/09 09:19:41;;;;;;;1.70;1.30;;;18.30;98.00;;;;;;5010936;28;20466;-69
2022/06/09 09:22:18;;;;;;;1.50;1.17;;;18.30;98.00;;;;;;5010273;28;21202;-69
2022/06/09 09:25:03;;;;;;;1.50;1.23;;;18.50;98.00;;;;;;5009159;28;20479;-72
2022/06/09 09:27:40;;;;;;;1.60;1.30;;;18.60;98.00;;;;;;5010254;28;20463;-73
2022/06/09 09:30:18;;;;;;;1.73;1.60;;;18.50;98.00;;;;;;5010275;28;20498;-73
2022/06/09 09:32:48;;;;;;;1.67;1.40;;;18.50;98.00;;;;;;5010343;28;20468;-72
2022/06/09 09:35:19;;;;;;;1.80;1.60;;;18.70;98.00;;;;;;5010311;28;20997;-73
2022/06/09 09:37:49;;;;;;;1.30;1.20;;;18.80;98.00;;;;;;5010288;28;21166;-71
2022/06/09 09:40:26;;;;;;;2.30;1.40;;;18.80;98.00;;;;;;5010454;28;20527;-74
2022/06/09 09:42:56;;;;;;;1.40;1.30;;;18.90;98.00;;;;;;5010893;28;20561;-68
2022/06/09 09:45:31;;;;;;;1.30;1.20;;;19.20;98.00;;;;;;5010552;28;20466;-73
2022/06/09 09:48:02;;;;;;;2.03;1.43;;;19.00;98.00;;;;;;5010053;28;20464;-72
2022/06/09 09:50:41;;;;;;;2.00;1.57;;;18.80;98.00;;;;;;5007876;28;20467;-72
2022/06/09 09:53:24;;;;;;;1.20;1.10;;;18.60;98.00;;;;;;5009518;28;20459;-74
2022/06/09 09:55:55;;;;;;;1.50;1.40;;;18.50;98.00;;;;;;5009659;28;20463;-73
2022/06/09 09:58:36;;;;;;;2.70;1.50;;;18.80;98.00;;;;;;5009913;28;20827;-71
2022/06/09 10:01:09;;;;;;;1.20;1.10;;;19.10;98.00;;;;;;5009779;28;20466;-69
2022/06/09 10:09:28;;;;;;;1.30;1.30;;;19.80;98.00;;;;;;5009314;28;20462;-71
2022/06/09 10:11:59;;;;;;;1.20;1.20;;;20.10;98.00;;;;;;5009297;28;20470;-69
2022/06/09 10:14:48;;;;;;;1.30;1.20;;;20.10;98.00;;;;;;5009277;28;20550;-72
2022/06/09 10:17:33;;;;;;;1.60;1.33;;;20.20;96.50;;;;;;5009016;28;20470;-70
2022/06/09 10:20:11;;;;;;;2.03;1.20;;;20.20;96.60;;;;;;5008997;28;20452;-70
2022/06/09 10:22:41;;;;;;;2.20;1.30;;;20.30;96.40;;;;;;5007690;28;20483;-73
2022/06/09 10:25:20;;;;;;;1.50;1.30;;;20.50;96.50;;;;;;5009199;28;20475;-70
2022/06/09 10:27:52;;;;;;;1.37;1.30;;;20.30;97.10;;;;;;5008468;28;20518;-68
2022/06/09 10:30:23;;;;;;;1.47;1.30;;;20.20;97.60;;;;;;5009208;28;20514;-70
2022/06/09 10:32:56;;;;;;;1.30;1.20;;;20.40;98.00;;;;;;5009127;28;20493;-73
2022/06/09 10:35:31;;;;;;;2.07;1.30;;;20.60;96.50;;;;;;5009078;28;21016;-72
2022/06/09 10:38:06;;;;;;;1.50;1.30;;;20.70;97.00;;;;;;5008829;28;20465;-69
2022/06/09 10:40:39;;;;;;;1.30;1.20;;;20.80;94.80;;;;;;5008944;28;20467;-70
2022/06/09 10:43:14;;;;;;;1.47;1.37;;;20.70;95.80;;;;;;5008916;28;20491;-70
2022/06/09 10:45:50;;;;;;;1.30;1.20;;;21.00;96.20;;;;;;5008704;28;20933;-71
2022/06/09 10:57:08;;;;;;;1.30;1.20;;;21.00;92.10;;;;;;5009128;28;20534;-69
2022/06/09 10:59:42;;;;;;;1.40;1.33;;;21.00;94.50;;;;;;5001038;28;20826;-68
2022/06/09 11:02:16;;;;;;;1.30;1.20;;;21.10;93.90;;;;;;5008717;28;20976;-70
2022/06/09 11:04:44;;;;;;;1.50;1.30;;;21.10;91.60;;;;;;5008708;28;20499;-72
2022/06/09 11:07:29;;;;;;;3.93;1.30;;;21.20;92.00;;;;;;5008402;28;20459;-70
2022/06/09 11:10:10;;;;;;;2.80;1.30;;;21.50;93.20;;;;;;5008726;28;20472;-71
2022/06/09 11:12:50;;;;;;;1.60;1.17;;;21.90;91.60;;;;;;5007586;28;20486;-69
2022/06/09 11:15:27;;;;;;;1.70;1.30;;;21.90;91.20;;;;;;5008629;28;20462;-72
2022/06/09 11:18:09;;;;;;;1.43;1.23;;;21.40;91.60;;;;;;5013096;28;20459;-69
2022/06/09 11:20:50;;;;;;;1.53;1.20;;;21.20;93.40;;;;;;5011341;28;20464;-70
2022/06/09 11:23:30;;;;;;;1.30;1.20;;;21.30;91.40;;;;;;5012378;28;20503;-72
2022/06/09 11:26:06;;;;;;;1.50;1.10;;;21.30;91.60;;;;;;5012112;28;20463;-69
2022/06/09 11:28:47;;;;;;;2.17;1.40;;;21.70;88.50;;;;;;5012135;28;20462;-70
2022/06/09 11:31:37;;;;;;;1.37;1.37;;;22.00;90.00;;;;;;5011035;28;20485;-65
2022/06/09 11:34:20;;;;;;;1.77;1.40;;;22.20;92.60;;;;;;5012159;28;20502;-66
2022/06/09 11:36:58;;;;;;;1.30;1.13;;;22.40;94.70;;;;;;5005711;28;20993;-66
2022/06/09 11:39:37;;;;;;;1.40;1.20;;;21.90;89.00;;;;;;5013130;28;20901;-66
2022/06/09 11:42:16;;;;;;;1.40;1.40;;;21.50;91.30;;;;;;5012730;28;20470;-66
2022/06/09 11:44:45;;;;;;;1.87;1.40;;;22.10;92.00;;;;;;5012792;28;20993;-71
2022/06/09 11:47:16;;;;;;;4.70;1.57;;;22.70;90.10;;;;;;5013636;28;20475;-70
2022/06/09 11:49:46;;;;;;;2.37;1.30;;;22.90;87.50;;;;;;5011334;28;20518;-69
2022/06/09 11:52:19;;;;;;;1.20;1.10;;;23.10;86.50;;;;;;5012322;28;20623;-67
2022/06/09 11:55:02;;;;;;;1.77;1.60;;;23.10;84.30;;;;;;5011846;28;20474;-69
2022/06/09 11:57:52;;;;;;;1.40;1.30;;;23.40;87.20;;;;;;5012046;28;20557;-69
2022/06/09 12:00:41;;;;;;;1.30;1.27;;;23.70;87.90;;;;;;5011714;28;20463;-69
2022/06/09 12:03:40;;;;;;;1.40;1.40;;;23.80;86.80;;;;;;5011808;28;20492;-69
2022/06/09 12:06:23;;;;;;;3.43;1.47;;;23.70;90.40;;;;;;5011751;28;21008;-70
2022/06/09 12:09:04;;;;;;;1.30;1.20;;;23.70;87.00;;;;;;5004166;28;20455;-70
2022/06/09 12:11:50;;;;;;;1.30;1.20;;;23.60;84.10;;;;;;5011465;28;20471;-69
2022/06/09 12:14:22;;;;;;;1.73;1.33;;;23.60;87.20;;;;;;5011460;28;20451;-69
2022/06/09 12:17:19;;;;;;;2.03;1.50;;;23.80;86.10;;;;;;5011552;28;21011;-68
2022/06/09 12:19:55;;;;;;;1.77;1.40;;;23.90;87.80;;;;;;5011094;28;20467;-71
2022/06/09 12:22:48;;;;;;;1.77;1.50;;;24.10;88.00;;;;;;5011719;28;20466;-72
2022/06/09 12:25:32;;;;;;;2.30;1.60;;;24.10;86.20;;;;;;5013695;28;20458;-68
2022/06/09 12:27:59;;;;;;;1.93;1.40;;;24.00;84.10;;;;;;5012576;28;20534;-73
2022/06/09 12:30:32;;;;;;;2.53;1.70;;;24.30;87.20;;;;;;5013777;28;20883;-71
2022/06/09 12:33:21;;;;;;;1.70;1.33;;;24.40;84.70;;;;;;5013492;28;20849;-70
2022/06/09 12:35:51;;;;;;;1.40;1.33;;;24.50;80.80;;;;;;5013266;28;20468;-69
2022/06/09 12:38:26;;;;;;;1.40;1.33;;;24.70;82.20;;;;;;5013494;28;20825;-71
2022/06/09 12:40:56;;;;;;;1.60;1.47;;;24.90;81.80;;;;;;5013075;28;20841;-71
2022/06/09 12:43:29;;;;;;;1.33;1.30;;;25.20;81.50;;;;;;5012411;28;20479;-71
2022/06/09 12:46:18;;;;;;;1.63;1.47;;;25.00;83.00;;;;;;5013170;28;20502;-69
2022/06/09 12:48:46;;;;;;;1.40;1.33;;;25.30;82.80;;;;;;5013324;28;20459;-69
2022/06/09 12:51:25;;;;;;;1.50;1.40;;;25.10;81.50;;;;;;5013451;28;20459;-71
2022/06/09 12:54:04;;;;;;;1.40;1.40;;;24.50;80.80;;;;;;5013085;28;20459;-71
2022/06/09 12:56:38;;;;;;;2.90;1.40;;;24.40;81.50;;;;;;5013108;28;20962;-70
2022/06/09 12:59:17;;;;;;;1.40;1.40;;;24.40;82.20;;;;;;5012813;28;20509;-68
2022/06/09 13:01:57;;;;;;;3.67;1.63;;;24.70;81.60;;;;;;5011367;28;20558;-69
2022/06/09 13:04:26;;;;;;;2.80;1.37;;;25.10;80.90;;;;;;5012924;28;20595;-70
2022/06/09 13:06:56;;;;;;;2.13;1.50;;;25.10;78.70;;;;;;5012748;28;20873;-70
2022/06/09 13:09:26;;;;;;;1.60;1.50;;;24.80;80.90;;;;;;5012977;28;20490;-70
2022/06/09 13:14:40;;;;;;;1.30;1.20;;;25.50;79.70;;;;;;5012805;28;20447;-71
2022/06/09 13:17:14;;;;;;;2.37;1.40;;;25.80;79.10;;;;;;5012423;28;20514;-72
2022/06/09 13:19:42;;;;;;;1.30;1.20;;;26.00;76.20;;;;;;5012656;28;20517;-72
2022/06/09 13:22:16;;;;;;;1.30;1.27;;;25.60;78.70;;;;;;5012351;28;20466;-73
2022/06/09 13:24:44;;;;;;;1.70;1.60;;;25.30;77.00;;;;;;5011211;28;20487;-68
2022/06/09 13:27:17;;;;;;;1.20;1.20;;;24.70;79.70;;;;;;5012343;28;20451;-70
2022/06/09 13:30:00;;;;;;;1.40;1.30;;;24.50;79.10;;;;;;5012473;28;20470;-69
2022/06/09 13:32:37;;;;;;;2.63;1.40;;;24.70;79.30;;;;;;5012503;28;20467;-72